sensor_id;sensor_type;location;lat;lon;timestamp;temperature;humidity
31619;DHT22;18230;51.502;7.108;2023-04-29T00:00:06;13.00;99.90
31619;DHT22;18230;51.502;7.108;2023-04-29T00:05:08;13.00;99.90
31619;DHT22;18230;51.502;7.108;2023-04-29T00:10:09;12.90;99.90
31619;DHT22;18230;51.502;7.108;2023-04-29T00:15:14;13.00;99.90
31619;DHT22;18230;51.502;7.108;2023-04-29T00:20:14;13.00;99.90
31619;DHT22;18230;51.502;7.108;2023-04-29T00:25:15;13.00;99.90
31619;DHT22;18230;51.502;7.108;2023-04-29T00:30:16;12.90;99.90
31619;DHT22;18230;51.502;7.108;2023-04-29T00:35:17;12.80;99.90
31619;DHT22;18230;51.502;7.108;2023-04-29T00:40:18;12.80;99.90
31619;DHT22;18230;51.502;7.108;2023-04-29T00:45:18;12.70;99.90
31619;DHT22;18230;51.502;7.108;2023-04-29T00:50:20;12.70;99.90
31619;DHT22;18230;51.502;7.108;2023-04-29T00:55:22;12.60;99.90
31619;DHT22;18230;51.502;7.108;2023-04-29T01:00:24;12.50;99.90
31619;DHT22;18230;51.502;7.108;2023-04-29T01:05:25;12.40;99.90
31619;DHT22;18230;51.502;7.108;2023-04-29T01:10:38;12.40;99.90
31619;DHT22;18230;51.502;7.108;2023-04-29T01:15:53;12.30;99.90
31619;DHT22;18230;51.502;7.108;2023-04-29T01:20:59;12.20;99.90
31619;DHT22;18230;51.502;7.108;2023-04-29T01:26:00;12.20;99.90
31619;DHT22;18230;51.502;7.108;2023-04-29T01:31:14;12.20;99.90
31619;DHT22;18230;51.502;7.108;2023-04-29T01:36:50;12.10;99.90
31619;DHT22;18230;51.502;7.108;2023-04-29T01:42:06;12.00;99.90
31619;DHT22;18230;51.502;7.108;2023-04-29T01:47:13;12.00;99.90
31619;DHT22;18230;51.502;7.108;2023-04-29T01:52:14;11.90;99.90
31619;DHT22;18230;51.502;7.108;2023-04-29T01:57:15;11.80;99.90
31619;DHT22;18230;51.502;7.108;2023-04-29T02:02:16;11.80;99.90
31619;DHT22;18230;51.502;7.108;2023-04-29T02:07:20;11.70;99.90
31619;DHT22;18230;51.502;7.108;2023-04-29T02:12:21;11.60;99.90
31619;DHT22;18230;51.502;7.108;2023-04-29T02:17:22;11.50;99.90
31619;DHT22;18230;51.502;7.108;2023-04-29T02:22:22;11.40;99.90
31619;DHT22;18230;51.502;7.108;2023-04-29T02:27:23;11.40;99.90
31619;DHT22;18230;51.502;7.108;2023-04-29T02:32:24;11.50;99.90
31619;DHT22;18230;51.502;7.108;2023-04-29T02:37:24;11.50;99.90
31619;DHT22;18230;51.502;7.108;2023-04-29T02:42:25;11.50;99.90
31619;DHT22;18230;51.502;7.108;2023-04-29T02:47:26;11.50;99.90
31619;DHT22;18230;51.502;7.108;2023-04-29T02:52:27;11.50;99.90
31619;DHT22;18230;51.502;7.108;2023-04-29T02:57:28;11.50;99.90
31619;DHT22;18230;51.502;7.108;2023-04-29T03:02:32;11.40;99.90
31619;DHT22;18230;51.502;7.108;2023-04-29T03:07:32;11.30;99.90
31619;DHT22;18230;51.502;7.108;2023-04-29T03:12:33;11.40;99.90
31619;DHT22;18230;51.502;7.108;2023-04-29T03:17:34;11.40;99.90
31619;DHT22;18230;51.502;7.108;2023-04-29T03:22:36;11.30;99.90
31619;DHT22;18230;51.502;7.108;2023-04-29T03:27:36;11.30;99.90
31619;DHT22;18230;51.502;7.108;2023-04-29T03:32:37;11.30;99.90
31619;DHT22;18230;51.502;7.108;2023-04-29T03:37:38;11.30;99.90
31619;DHT22;18230;51.502;7.108;2023-04-29T03:42:39;11.20;99.90
31619;DHT22;18230;51.502;7.108;2023-04-29T03:47:40;11.30;99.90
31619;DHT22;18230;51.502;7.108;2023-04-29T03:52:41;11.30;99.90
31619;DHT22;18230;51.502;7.108;2023-04-29T03:57:41;11.30;99.90
31619;DHT22;18230;51.502;7.108;2023-04-29T04:02:42;11.30;99.90
31619;DHT22;18230;51.502;7.108;2023-04-29T04:07:43;11.20;99.90
31619;DHT22;18230;51.502;7.108;2023-04-29T04:12:43;11.10;99.90
31619;DHT22;18230;51.502;7.108;2023-04-29T04:17:45;11.10;99.90
31619;DHT22;18230;51.502;7.108;2023-04-29T04:22:46;11.20;99.90
31619;DHT22;18230;51.502;7.108;2023-04-29T04:27:46;11.20;99.90
31619;DHT22;18230;51.502;7.108;2023-04-29T04:32:47;11.10;99.90
31619;DHT22;18230;51.502;7.108;2023-04-29T04:37:48;11.10;99.90
31619;DHT22;18230;51.502;7.108;2023-04-29T04:42:49;11.10;99.90
31619;DHT22;18230;51.502;7.108;2023-04-29T04:47:50;11.10;99.90
31619;DHT22;18230;51.502;7.108;2023-04-29T04:52:51;11.10;99.90
31619;DHT22;18230;51.502;7.108;2023-04-29T04:57:53;11.20;99.90
31619;DHT22;18230;51.502;7.108;2023-04-29T05:02:54;11.20;99.90
31619;DHT22;18230;51.502;7.108;2023-04-29T05:07:55;11.20;99.90
31619;DHT22;18230;51.502;7.108;2023-04-29T05:12:55;11.20;99.90
31619;DHT22;18230;51.502;7.108;2023-04-29T05:17:56;11.20;99.90
31619;DHT22;18230;51.502;7.108;2023-04-29T05:22:57;11.30;99.90
31619;DHT22;18230;51.502;7.108;2023-04-29T05:27:57;11.30;99.90
31619;DHT22;18230;51.502;7.108;2023-04-29T05:32:58;11.30;99.90
31619;DHT22;18230;51.502;7.108;2023-04-29T05:37:59;11.30;99.90
31619;DHT22;18230;51.502;7.108;2023-04-29T05:43:00;11.30;99.90
31619;DHT22;18230;51.502;7.108;2023-04-29T05:48:01;11.30;99.90
31619;DHT22;18230;51.502;7.108;2023-04-29T05:53:01;11.40;99.90
31619;DHT22;18230;51.502;7.108;2023-04-29T05:58:02;11.40;99.90
31619;DHT22;18230;51.502;7.108;2023-04-29T06:03:03;11.40;99.90
31619;DHT22;18230;51.502;7.108;2023-04-29T06:08:04;11.50;99.90
31619;DHT22;18230;51.502;7.108;2023-04-29T06:13:05;11.50;99.90
31619;DHT22;18230;51.502;7.108;2023-04-29T06:18:06;11.50;99.90
31619;DHT22;18230;51.502;7.108;2023-04-29T06:23:06;11.40;99.90
31619;DHT22;18230;51.502;7.108;2023-04-29T06:28:08;11.50;99.90
31619;DHT22;18230;51.502;7.108;2023-04-29T06:33:08;11.50;99.90
31619;DHT22;18230;51.502;7.108;2023-04-29T06:38:09;11.50;99.90
31619;DHT22;18230;51.502;7.108;2023-04-29T06:43:10;11.50;99.90
31619;DHT22;18230;51.502;7.108;2023-04-29T06:48:11;11.60;99.90
31619;DHT22;18230;51.502;7.108;2023-04-29T06:53:12;11.50;99.90
31619;DHT22;18230;51.502;7.108;2023-04-29T06:58:13;11.30;99.90
31619;DHT22;18230;51.502;7.108;2023-04-29T07:03:15;11.30;99.90
31619;DHT22;18230;51.502;7.108;2023-04-29T07:08:16;11.30;99.90
31619;DHT22;18230;51.502;7.108;2023-04-29T07:13:17;11.30;99.90
31619;DHT22;18230;51.502;7.108;2023-04-29T07:18:18;11.30;99.90
31619;DHT22;18230;51.502;7.108;2023-04-29T07:23:18;11.30;99.90
31619;DHT22;18230;51.502;7.108;2023-04-29T07:28:19;11.20;99.90
31619;DHT22;18230;51.502;7.108;2023-04-29T07:33:20;11.30;99.90
31619;DHT22;18230;51.502;7.108;2023-04-29T07:38:21;11.40;99.90
31619;DHT22;18230;51.502;7.108;2023-04-29T07:43:21;11.30;99.90
31619;DHT22;18230;51.502;7.108;2023-04-29T07:48:22;11.20;99.90
31619;DHT22;18230;51.502;7.108;2023-04-29T07:53:23;11.20;99.90
31619;DHT22;18230;51.502;7.108;2023-04-29T07:58:24;11.30;99.90
31619;DHT22;18230;51.502;7.108;2023-04-29T08:03:26;11.40;99.90
31619;DHT22;18230;51.502;7.108;2023-04-29T08:08:26;11.40;99.90
31619;DHT22;18230;51.502;7.108;2023-04-29T08:13:27;11.30;99.90
31619;DHT22;18230;51.502;7.108;2023-04-29T08:18:28;11.30;99.90
31619;DHT22;18230;51.502;7.108;2023-04-29T08:23:29;11.40;99.90
31619;DHT22;18230;51.502;7.108;2023-04-29T08:28:30;11.50;99.90
31619;DHT22;18230;51.502;7.108;2023-04-29T08:33:31;11.50;99.90
31619;DHT22;18230;51.502;7.108;2023-04-29T08:38:32;11.60;99.90
31619;DHT22;18230;51.502;7.108;2023-04-29T08:43:36;11.70;99.90
31619;DHT22;18230;51.502;7.108;2023-04-29T08:48:40;11.70;99.90
31619;DHT22;18230;51.502;7.108;2023-04-29T08:53:40;11.80;99.90
31619;DHT22;18230;51.502;7.108;2023-04-29T08:58:42;11.70;99.90
31619;DHT22;18230;51.502;7.108;2023-04-29T09:03:51;11.80;99.90
31619;DHT22;18230;51.502;7.108;2023-04-29T09:08:54;11.90;99.90
31619;DHT22;18230;51.502;7.108;2023-04-29T09:13:59;12.00;99.90
31619;DHT22;18230;51.502;7.108;2023-04-29T09:19:03;12.00;99.90
31619;DHT22;18230;51.502;7.108;2023-04-29T09:24:04;12.00;99.90
31619;DHT22;18230;51.502;7.108;2023-04-29T09:29:10;12.10;99.90
31619;DHT22;18230;51.502;7.108;2023-04-29T09:34:16;12.20;99.90
31619;DHT22;18230;51.502;7.108;2023-04-29T09:39:19;12.10;99.90
31619;DHT22;18230;51.502;7.108;2023-04-29T09:44:23;12.20;99.90
31619;DHT22;18230;51.502;7.108;2023-04-29T09:49:26;12.30;99.90
31619;DHT22;18230;51.502;7.108;2023-04-29T09:54:32;12.40;99.90
31619;DHT22;18230;51.502;7.108;2023-04-29T09:59:36;12.60;99.90
31619;DHT22;18230;51.502;7.108;2023-04-29T10:04:39;12.80;99.90
31619;DHT22;18230;51.502;7.108;2023-04-29T10:09:41;12.90;99.90
31619;DHT22;18230;51.502;7.108;2023-04-29T10:14:52;13.10;99.90
31619;DHT22;18230;51.502;7.108;2023-04-29T10:20:01;13.20;99.90
31619;DHT22;18230;51.502;7.108;2023-04-29T10:25:05;13.50;99.90
31619;DHT22;18230;51.502;7.108;2023-04-29T10:30:11;13.80;99.90
31619;DHT22;18230;51.502;7.108;2023-04-29T10:35:15;14.10;99.90
31619;DHT22;18230;51.502;7.108;2023-04-29T10:45:31;14.30;99.90
31619;DHT22;18230;51.502;7.108;2023-04-29T10:50:58;14.40;99.90
31619;DHT22;18230;51.502;7.108;2023-04-29T10:56:09;14.50;99.90
31619;DHT22;18230;51.502;7.108;2023-04-29T11:01:14;14.70;99.90
31619;DHT22;18230;51.502;7.108;2023-04-29T11:06:16;14.90;99.90
31619;DHT22;18230;51.502;7.108;2023-04-29T11:11:16;15.00;99.90
31619;DHT22;18230;51.502;7.108;2023-04-29T11:16:25;15.20;99.90
31619;DHT22;18230;51.502;7.108;2023-04-29T11:21:29;15.40;99.90
31619;DHT22;18230;51.502;7.108;2023-04-29T11:26:34;15.60;99.90
31619;DHT22;18230;51.502;7.108;2023-04-29T11:31:35;15.80;99.90
31619;DHT22;18230;51.502;7.108;2023-04-29T11:36:36;16.10;99.90
31619;DHT22;18230;51.502;7.108;2023-04-29T11:41:37;16.40;99.90
31619;DHT22;18230;51.502;7.108;2023-04-29T11:46:38;16.50;99.90
31619;DHT22;18230;51.502;7.108;2023-04-29T11:51:39;16.30;99.90
31619;DHT22;18230;51.502;7.108;2023-04-29T11:56:40;16.30;99.90
31619;DHT22;18230;51.502;7.108;2023-04-29T12:01:41;16.70;99.90
31619;DHT22;18230;51.502;7.108;2023-04-29T12:06:42;17.10;99.90
31619;DHT22;18230;51.502;7.108;2023-04-29T12:11:43;17.20;99.90
31619;DHT22;18230;51.502;7.108;2023-04-29T12:16:44;17.20;99.90
31619;DHT22;18230;51.502;7.108;2023-04-29T12:21:48;17.00;99.90
31619;DHT22;18230;51.502;7.108;2023-04-29T12:26:49;16.70;99.90
31619;DHT22;18230;51.502;7.108;2023-04-29T12:31:50;16.70;99.90
31619;DHT22;18230;51.502;7.108;2023-04-29T12:36:54;16.40;99.90
31619;DHT22;18230;51.502;7.108;2023-04-29T12:41:59;16.40;99.90
31619;DHT22;18230;51.502;7.108;2023-04-29T12:47:07;16.70;99.90
31619;DHT22;18230;51.502;7.108;2023-04-29T12:52:08;16.70;99.90
31619;DHT22;18230;51.502;7.108;2023-04-29T12:57:15;16.70;99.90
31619;DHT22;18230;51.502;7.108;2023-04-29T13:02:18;16.60;99.90
31619;DHT22;18230;51.502;7.108;2023-04-29T13:07:19;16.60;99.90
31619;DHT22;18230;51.502;7.108;2023-04-29T13:12:20;16.70;99.90
31619;DHT22;18230;51.502;7.108;2023-04-29T13:17:21;16.80;99.90
31619;DHT22;18230;51.502;7.108;2023-04-29T13:22:22;16.80;99.90
31619;DHT22;18230;51.502;7.108;2023-04-29T13:27:23;16.80;99.90
31619;DHT22;18230;51.502;7.108;2023-04-29T13:32:24;16.80;99.90
31619;DHT22;18230;51.502;7.108;2023-04-29T13:37:25;16.80;99.90
31619;DHT22;18230;51.502;7.108;2023-04-29T13:42:26;16.80;99.90
31619;DHT22;18230;51.502;7.108;2023-04-29T13:47:26;16.70;99.90
31619;DHT22;18230;51.502;7.108;2023-04-29T13:52:27;16.80;99.90
31619;DHT22;18230;51.502;7.108;2023-04-29T13:57:29;16.90;99.90
31619;DHT22;18230;51.502;7.108;2023-04-29T14:02:30;16.90;99.90
31619;DHT22;18230;51.502;7.108;2023-04-29T14:07:31;16.80;99.90
31619;DHT22;18230;51.502;7.108;2023-04-29T14:12:32;16.80;99.90
31619;DHT22;18230;51.502;7.108;2023-04-29T14:17:36;16.70;99.90
31619;DHT22;18230;51.502;7.108;2023-04-29T14:22:37;16.50;99.90
31619;DHT22;18230;51.502;7.108;2023-04-29T14:27:37;16.40;99.90
31619;DHT22;18230;51.502;7.108;2023-04-29T14:32:38;16.40;99.90
31619;DHT22;18230;51.502;7.108;2023-04-29T14:37:39;16.80;99.90
31619;DHT22;18230;51.502;7.108;2023-04-29T14:42:40;16.80;99.90
31619;DHT22;18230;51.502;7.108;2023-04-29T14:47:41;17.10;99.90
31619;DHT22;18230;51.502;7.108;2023-04-29T14:52:42;17.20;99.90
31619;DHT22;18230;51.502;7.108;2023-04-29T14:57:42;17.30;99.90
31619;DHT22;18230;51.502;7.108;2023-04-29T15:02:43;17.20;99.90
31619;DHT22;18230;51.502;7.108;2023-04-29T15:07:44;17.20;99.90
31619;DHT22;18230;51.502;7.108;2023-04-29T15:12:45;17.30;99.90
31619;DHT22;18230;51.502;7.108;2023-04-29T15:17:46;17.40;99.90
31619;DHT22;18230;51.502;7.108;2023-04-29T15:22:46;17.30;99.90
31619;DHT22;18230;51.502;7.108;2023-04-29T15:27:47;17.70;99.90
31619;DHT22;18230;51.502;7.108;2023-04-29T15:32:48;18.00;99.90
31619;DHT22;18230;51.502;7.108;2023-04-29T15:37:49;18.70;99.90
31619;DHT22;18230;51.502;7.108;2023-04-29T15:42:50;19.00;99.90
31619;DHT22;18230;51.502;7.108;2023-04-29T15:47:50;18.70;99.90
31619;DHT22;18230;51.502;7.108;2023-04-29T15:52:51;18.40;99.90
31619;DHT22;18230;51.502;7.108;2023-04-29T15:57:55;18.20;99.90
31619;DHT22;18230;51.502;7.108;2023-04-29T16:02:56;18.00;99.90
31619;DHT22;18230;51.502;7.108;2023-04-29T16:07:56;17.80;99.90
31619;DHT22;18230;51.502;7.108;2023-04-29T16:12:57;17.60;99.90
31619;DHT22;18230;51.502;7.108;2023-04-29T16:17:58;17.40;99.90
31619;DHT22;18230;51.502;7.108;2023-04-29T16:23:00;17.20;99.90
31619;DHT22;18230;51.502;7.108;2023-04-29T16:28:01;17.10;99.90
31619;DHT22;18230;51.502;7.108;2023-04-29T16:33:01;17.10;99.90
31619;DHT22;18230;51.502;7.108;2023-04-29T16:38:02;17.00;99.90
31619;DHT22;18230;51.502;7.108;2023-04-29T16:43:03;17.00;99.90
31619;DHT22;18230;51.502;7.108;2023-04-29T16:48:04;16.90;99.90
31619;DHT22;18230;51.502;7.108;2023-04-29T16:53:05;16.90;99.90
31619;DHT22;18230;51.502;7.108;2023-04-29T16:58:06;16.90;99.90
31619;DHT22;18230;51.502;7.108;2023-04-29T17:03:07;16.80;99.90
31619;DHT22;18230;51.502;7.108;2023-04-29T17:08:08;16.70;99.90
31619;DHT22;18230;51.502;7.108;2023-04-29T17:13:09;16.70;99.90
31619;DHT22;18230;51.502;7.108;2023-04-29T17:18:10;16.60;99.90
31619;DHT22;18230;51.502;7.108;2023-04-29T17:23:11;16.60;99.90
31619;DHT22;18230;51.502;7.108;2023-04-29T17:28:12;16.60;99.90
31619;DHT22;18230;51.502;7.108;2023-04-29T17:33:13;16.50;99.90
31619;DHT22;18230;51.502;7.108;2023-04-29T17:38:14;16.50;99.90
31619;DHT22;18230;51.502;7.108;2023-04-29T17:43:14;16.50;99.90
31619;DHT22;18230;51.502;7.108;2023-04-29T17:48:15;16.30;99.90
31619;DHT22;18230;51.502;7.108;2023-04-29T17:53:18;16.20;99.90
31619;DHT22;18230;51.502;7.108;2023-04-29T17:58:19;16.30;99.90
31619;DHT22;18230;51.502;7.108;2023-04-29T18:03:20;16.20;99.90
31619;DHT22;18230;51.502;7.108;2023-04-29T18:08:22;16.20;99.90
31619;DHT22;18230;51.502;7.108;2023-04-29T18:13:23;16.20;99.90
31619;DHT22;18230;51.502;7.108;2023-04-29T18:18:24;16.10;99.90
31619;DHT22;18230;51.502;7.108;2023-04-29T18:23:25;16.10;99.90
31619;DHT22;18230;51.502;7.108;2023-04-29T18:28:26;16.10;99.90
31619;DHT22;18230;51.502;7.108;2023-04-29T18:33:28;16.10;99.90
31619;DHT22;18230;51.502;7.108;2023-04-29T18:38:30;16.00;99.90
31619;DHT22;18230;51.502;7.108;2023-04-29T18:43:31;15.90;99.90
31619;DHT22;18230;51.502;7.108;2023-04-29T18:48:31;15.80;99.90
31619;DHT22;18230;51.502;7.108;2023-04-29T18:53:33;15.70;99.90
31619;DHT22;18230;51.502;7.108;2023-04-29T18:58:34;15.50;99.90
31619;DHT22;18230;51.502;7.108;2023-04-29T19:03:35;15.40;99.90
31619;DHT22;18230;51.502;7.108;2023-04-29T19:08:36;15.30;99.90
31619;DHT22;18230;51.502;7.108;2023-04-29T19:13:37;15.10;99.90
31619;DHT22;18230;51.502;7.108;2023-04-29T19:18:37;14.90;99.90
31619;DHT22;18230;51.502;7.108;2023-04-29T19:23:38;14.90;99.90
31619;DHT22;18230;51.502;7.108;2023-04-29T19:28:39;14.70;99.90
31619;DHT22;18230;51.502;7.108;2023-04-29T19:33:40;14.50;99.90
31619;DHT22;18230;51.502;7.108;2023-04-29T19:38:41;14.30;99.90
31619;DHT22;18230;51.502;7.108;2023-04-29T19:43:41;14.20;99.90
31619;DHT22;18230;51.502;7.108;2023-04-29T19:48:42;14.00;99.90
31619;DHT22;18230;51.502;7.108;2023-04-29T19:53:43;13.90;99.90
31619;DHT22;18230;51.502;7.108;2023-04-29T19:58:44;13.70;99.90
31619;DHT22;18230;51.502;7.108;2023-04-29T20:03:45;13.70;99.90
31619;DHT22;18230;51.502;7.108;2023-04-29T20:08:46;13.70;99.90
31619;DHT22;18230;51.502;7.108;2023-04-29T20:13:46;13.50;99.90
31619;DHT22;18230;51.502;7.108;2023-04-29T20:18:47;13.50;99.90
31619;DHT22;18230;51.502;7.108;2023-04-29T20:23:48;13.40;99.90
31619;DHT22;18230;51.502;7.108;2023-04-29T20:28:49;13.40;99.90
31619;DHT22;18230;51.502;7.108;2023-04-29T20:33:50;13.30;99.90
31619;DHT22;18230;51.502;7.108;2023-04-29T20:38:51;13.20;99.90
31619;DHT22;18230;51.502;7.108;2023-04-29T20:43:52;13.10;99.90
31619;DHT22;18230;51.502;7.108;2023-04-29T20:48:53;13.10;99.90
31619;DHT22;18230;51.502;7.108;2023-04-29T20:53:54;13.00;99.90
31619;DHT22;18230;51.502;7.108;2023-04-29T20:58:54;13.00;99.90
31619;DHT22;18230;51.502;7.108;2023-04-29T21:03:58;12.90;99.90
31619;DHT22;18230;51.502;7.108;2023-04-29T21:09:00;12.80;99.90
31619;DHT22;18230;51.502;7.108;2023-04-29T21:14:01;12.80;99.90
31619;DHT22;18230;51.502;7.108;2023-04-29T21:19:01;12.70;99.90
31619;DHT22;18230;51.502;7.108;2023-04-29T21:24:02;12.60;99.90
31619;DHT22;18230;51.502;7.108;2023-04-29T21:29:03;12.50;99.90
31619;DHT22;18230;51.502;7.108;2023-04-29T21:34:04;12.40;99.90
31619;DHT22;18230;51.502;7.108;2023-04-29T21:39:05;12.40;99.90
31619;DHT22;18230;51.502;7.108;2023-04-29T21:44:06;12.30;99.90
31619;DHT22;18230;51.502;7.108;2023-04-29T21:49:07;12.20;99.90
31619;DHT22;18230;51.502;7.108;2023-04-29T21:54:07;12.10;99.90
31619;DHT22;18230;51.502;7.108;2023-04-29T21:59:08;12.10;99.90
31619;DHT22;18230;51.502;7.108;2023-04-29T22:04:09;11.90;99.90
31619;DHT22;18230;51.502;7.108;2023-04-29T22:09:10;11.80;99.90
31619;DHT22;18230;51.502;7.108;2023-04-29T22:14:11;11.80;99.90
31619;DHT22;18230;51.502;7.108;2023-04-29T22:19:11;11.70;99.90
31619;DHT22;18230;51.502;7.108;2023-04-29T22:24:12;11.60;99.90
31619;DHT22;18230;51.502;7.108;2023-04-29T22:29:13;11.60;99.90
31619;DHT22;18230;51.502;7.108;2023-04-29T22:34:13;11.50;99.90
31619;DHT22;18230;51.502;7.108;2023-04-29T22:39:14;11.50;99.90
31619;DHT22;18230;51.502;7.108;2023-04-29T22:44:15;11.40;99.90
31619;DHT22;18230;51.502;7.108;2023-04-29T22:49:16;11.30;99.90
31619;DHT22;18230;51.502;7.108;2023-04-29T22:54:16;11.20;99.90
31619;DHT22;18230;51.502;7.108;2023-04-29T22:59:17;11.10;99.90
31619;DHT22;18230;51.502;7.108;2023-04-29T23:04:19;11.10;99.90
31619;DHT22;18230;51.502;7.108;2023-04-29T23:09:22;11.00;99.90
31619;DHT22;18230;51.502;7.108;2023-04-29T23:14:22;10.90;99.90
31619;DHT22;18230;51.502;7.108;2023-04-29T23:19:23;10.90;99.90
31619;DHT22;18230;51.502;7.108;2023-04-29T23:24:24;10.80;99.90
31619;DHT22;18230;51.502;7.108;2023-04-29T23:29:25;10.80;99.90
31619;DHT22;18230;51.502;7.108;2023-04-29T23:34:25;10.70;99.90
31619;DHT22;18230;51.502;7.108;2023-04-29T23:39:26;10.60;99.90
31619;DHT22;18230;51.502;7.108;2023-04-29T23:44:27;10.50;99.90
31619;DHT22;18230;51.502;7.108;2023-04-29T23:49:27;10.50;99.90
31619;DHT22;18230;51.502;7.108;2023-04-29T23:54:28;10.40;99.90
31619;DHT22;18230;51.502;7.108;2023-04-29T23:59:29;10.40;99.90
